sensor_id;sensor_type;location;lat;lon;timestamp;P1;durP1;ratioP1;P2;durP2;ratioP2
57341;SDS011;43175;51.002;18.316;2022-11-20T00:00:56;47.30;;;19.80;;
57341;SDS011;43175;51.002;18.316;2022-11-20T00:03:22;50.70;;;20.40;;
57341;SDS011;43175;51.002;18.316;2022-11-20T00:05:47;48.50;;;20.80;;
57341;SDS011;43175;51.002;18.316;2022-11-20T00:08:13;49.30;;;20.80;;
57341;SDS011;43175;51.002;18.316;2022-11-20T00:10:39;46.50;;;20.10;;
57341;SDS011;43175;51.002;18.316;2022-11-20T00:13:05;45.80;;;19.50;;
57341;SDS011;43175;51.002;18.316;2022-11-20T00:15:31;45.30;;;19.90;;
57341;SDS011;43175;51.002;18.316;2022-11-20T00:17:56;45.50;;;19.80;;
57341;SDS011;43175;51.002;18.316;2022-11-20T00:20:22;47.10;;;19.70;;
57341;SDS011;43175;51.002;18.316;2022-11-20T00:22:47;41.30;;;18.40;;
57341;SDS011;43175;51.002;18.316;2022-11-20T00:25:13;44.80;;;19.60;;
57341;SDS011;43175;51.002;18.316;2022-11-20T00:27:38;46.00;;;20.40;;
57341;SDS011;43175;51.002;18.316;2022-11-20T00:30:04;44.50;;;19.20;;
57341;SDS011;43175;51.002;18.316;2022-11-20T00:32:31;47.10;;;19.80;;
57341;SDS011;43175;51.002;18.316;2022-11-20T00:34:57;48.40;;;20.90;;
57341;SDS011;43175;51.002;18.316;2022-11-20T00:37:22;51.90;;;20.30;;
57341;SDS011;43175;51.002;18.316;2022-11-20T00:39:48;49.20;;;20.60;;
57341;SDS011;43175;51.002;18.316;2022-11-20T00:42:13;46.80;;;20.30;;
57341;SDS011;43175;51.002;18.316;2022-11-20T00:44:39;46.20;;;21.40;;
57341;SDS011;43175;51.002;18.316;2022-11-20T00:47:04;45.40;;;19.10;;
57341;SDS011;43175;51.002;18.316;2022-11-20T00:49:30;47.10;;;19.90;;
57341;SDS011;43175;51.002;18.316;2022-11-20T00:51:55;46.80;;;20.60;;
57341;SDS011;43175;51.002;18.316;2022-11-20T00:54:21;48.10;;;20.70;;
57341;SDS011;43175;51.002;18.316;2022-11-20T00:56:46;46.10;;;20.40;;
57341;SDS011;43175;51.002;18.316;2022-11-20T00:59:12;47.70;;;20.40;;
57341;SDS011;43175;51.002;18.316;2022-11-20T01:01:37;45.90;;;19.60;;
57341;SDS011;43175;51.002;18.316;2022-11-20T01:04:03;49.90;;;19.80;;
57341;SDS011;43175;51.002;18.316;2022-11-20T01:06:30;50.00;;;20.50;;
57341;SDS011;43175;51.002;18.316;2022-11-20T01:08:58;51.20;;;21.00;;
57341;SDS011;43175;51.002;18.316;2022-11-20T01:11:26;49.10;;;20.40;;
57341;SDS011;43175;51.002;18.316;2022-11-20T01:13:54;47.00;;;20.90;;
57341;SDS011;43175;51.002;18.316;2022-11-20T01:16:21;46.80;;;20.50;;
57341;SDS011;43175;51.002;18.316;2022-11-20T01:18:50;42.90;;;19.70;;
57341;SDS011;43175;51.002;18.316;2022-11-20T01:21:19;42.70;;;18.30;;
57341;SDS011;43175;51.002;18.316;2022-11-20T01:23:47;49.10;;;20.60;;
57341;SDS011;43175;51.002;18.316;2022-11-20T01:26:14;45.50;;;20.40;;
57341;SDS011;43175;51.002;18.316;2022-11-20T01:28:42;51.80;;;20.50;;
57341;SDS011;43175;51.002;18.316;2022-11-20T01:31:15;47.70;;;20.80;;
57341;SDS011;43175;51.002;18.316;2022-11-20T01:33:42;51.00;;;21.30;;
57341;SDS011;43175;51.002;18.316;2022-11-20T01:36:09;46.00;;;20.50;;
57341;SDS011;43175;51.002;18.316;2022-11-20T01:38:35;49.40;;;20.90;;
57341;SDS011;43175;51.002;18.316;2022-11-20T01:41:00;49.70;;;21.20;;
57341;SDS011;43175;51.002;18.316;2022-11-20T01:43:26;54.60;;;22.70;;
57341;SDS011;43175;51.002;18.316;2022-11-20T01:48:42;47.30;;;19.00;;
57341;SDS011;43175;51.002;18.316;2022-11-20T01:51:17;47.70;;;20.60;;
57341;SDS011;43175;51.002;18.316;2022-11-20T01:53:45;48.30;;;20.50;;
57341;SDS011;43175;51.002;18.316;2022-11-20T01:56:11;49.20;;;20.30;;
57341;SDS011;43175;51.002;18.316;2022-11-20T01:58:40;52.10;;;21.40;;
57341;SDS011;43175;51.002;18.316;2022-11-20T02:01:10;54.50;;;22.20;;
57341;SDS011;43175;51.002;18.316;2022-11-20T02:03:36;54.30;;;22.00;;
57341;SDS011;43175;51.002;18.316;2022-11-20T02:08:29;51.30;;;22.40;;
57341;SDS011;43175;51.002;18.316;2022-11-20T02:10:55;52.00;;;22.60;;
57341;SDS011;43175;51.002;18.316;2022-11-20T02:13:21;55.10;;;23.10;;
57341;SDS011;43175;51.002;18.316;2022-11-20T02:16:07;53.60;;;23.80;;
57341;SDS011;43175;51.002;18.316;2022-11-20T02:18:54;56.00;;;24.50;;
57341;SDS011;43175;51.002;18.316;2022-11-20T02:21:25;53.00;;;24.40;;
57341;SDS011;43175;51.002;18.316;2022-11-20T02:23:59;54.60;;;23.20;;
57341;SDS011;43175;51.002;18.316;2022-11-20T02:26:26;57.40;;;23.60;;
57341;SDS011;43175;51.002;18.316;2022-11-20T02:28:53;56.90;;;25.30;;
57341;SDS011;43175;51.002;18.316;2022-11-20T02:31:19;54.70;;;23.30;;
57341;SDS011;43175;51.002;18.316;2022-11-20T02:33:45;63.30;;;24.70;;
57341;SDS011;43175;51.002;18.316;2022-11-20T02:36:11;61.00;;;25.30;;
57341;SDS011;43175;51.002;18.316;2022-11-20T02:38:40;61.60;;;25.30;;
57341;SDS011;43175;51.002;18.316;2022-11-20T02:41:06;60.10;;;25.10;;
57341;SDS011;43175;51.002;18.316;2022-11-20T02:43:32;55.70;;;24.10;;
57341;SDS011;43175;51.002;18.316;2022-11-20T02:45:57;59.20;;;24.60;;
57341;SDS011;43175;51.002;18.316;2022-11-20T02:48:22;55.30;;;23.70;;
57341;SDS011;43175;51.002;18.316;2022-11-20T02:50:48;56.90;;;24.00;;
57341;SDS011;43175;51.002;18.316;2022-11-20T02:53:13;52.00;;;23.20;;
57341;SDS011;43175;51.002;18.316;2022-11-20T02:55:38;57.20;;;24.20;;
57341;SDS011;43175;51.002;18.316;2022-11-20T02:58:04;58.20;;;23.90;;
57341;SDS011;43175;51.002;18.316;2022-11-20T03:00:30;56.60;;;24.70;;
57341;SDS011;43175;51.002;18.316;2022-11-20T03:02:55;52.00;;;22.90;;
57341;SDS011;43175;51.002;18.316;2022-11-20T03:05:21;56.30;;;23.90;;
57341;SDS011;43175;51.002;18.316;2022-11-20T03:07:46;53.20;;;24.10;;
57341;SDS011;43175;51.002;18.316;2022-11-20T03:10:12;53.10;;;23.10;;
57341;SDS011;43175;51.002;18.316;2022-11-20T03:12:37;56.10;;;24.50;;
57341;SDS011;43175;51.002;18.316;2022-11-20T03:15:03;56.30;;;23.90;;
57341;SDS011;43175;51.002;18.316;2022-11-20T03:17:29;55.80;;;25.30;;
57341;SDS011;43175;51.002;18.316;2022-11-20T03:19:56;62.00;;;25.10;;
57341;SDS011;43175;51.002;18.316;2022-11-20T03:22:21;55.60;;;24.30;;
57341;SDS011;43175;51.002;18.316;2022-11-20T03:24:47;59.50;;;25.70;;
57341;SDS011;43175;51.002;18.316;2022-11-20T03:27:12;59.40;;;25.30;;
57341;SDS011;43175;51.002;18.316;2022-11-20T03:29:38;56.00;;;24.50;;
57341;SDS011;43175;51.002;18.316;2022-11-20T03:32:03;60.00;;;25.80;;
57341;SDS011;43175;51.002;18.316;2022-11-20T03:34:29;58.20;;;24.70;;
57341;SDS011;43175;51.002;18.316;2022-11-20T03:36:54;54.10;;;25.10;;
57341;SDS011;43175;51.002;18.316;2022-11-20T03:39:19;60.20;;;26.00;;
57341;SDS011;43175;51.002;18.316;2022-11-20T03:41:45;64.20;;;27.00;;
57341;SDS011;43175;51.002;18.316;2022-11-20T03:44:10;61.30;;;25.20;;
57341;SDS011;43175;51.002;18.316;2022-11-20T03:46:36;61.60;;;25.40;;
57341;SDS011;43175;51.002;18.316;2022-11-20T03:49:02;62.50;;;25.30;;
57341;SDS011;43175;51.002;18.316;2022-11-20T03:51:30;63.40;;;26.10;;
57341;SDS011;43175;51.002;18.316;2022-11-20T03:54:01;59.20;;;24.80;;
57341;SDS011;43175;51.002;18.316;2022-11-20T03:56:29;60.80;;;25.60;;
57341;SDS011;43175;51.002;18.316;2022-11-20T03:58:55;61.10;;;26.00;;
57341;SDS011;43175;51.002;18.316;2022-11-20T04:01:25;59.70;;;25.70;;
57341;SDS011;43175;51.002;18.316;2022-11-20T04:03:52;62.50;;;24.10;;
57341;SDS011;43175;51.002;18.316;2022-11-20T04:06:20;63.90;;;26.20;;
57341;SDS011;43175;51.002;18.316;2022-11-20T04:08:46;59.00;;;25.70;;
57341;SDS011;43175;51.002;18.316;2022-11-20T04:11:16;61.90;;;26.30;;
57341;SDS011;43175;51.002;18.316;2022-11-20T04:13:50;65.10;;;27.00;;
57341;SDS011;43175;51.002;18.316;2022-11-20T04:16:17;61.20;;;25.60;;
57341;SDS011;43175;51.002;18.316;2022-11-20T04:18:44;63.50;;;26.20;;
57341;SDS011;43175;51.002;18.316;2022-11-20T04:21:10;61.70;;;25.60;;
57341;SDS011;43175;51.002;18.316;2022-11-20T04:23:36;61.80;;;25.00;;
57341;SDS011;43175;51.002;18.316;2022-11-20T04:26:06;63.00;;;26.70;;
57341;SDS011;43175;51.002;18.316;2022-11-20T04:28:33;65.10;;;27.80;;
57341;SDS011;43175;51.002;18.316;2022-11-20T04:31:03;64.30;;;26.80;;
57341;SDS011;43175;51.002;18.316;2022-11-20T04:33:30;66.20;;;28.00;;
57341;SDS011;43175;51.002;18.316;2022-11-20T04:35:55;71.90;;;28.60;;
57341;SDS011;43175;51.002;18.316;2022-11-20T04:38:25;69.20;;;28.00;;
57341;SDS011;43175;51.002;18.316;2022-11-20T04:40:51;69.40;;;28.60;;
57341;SDS011;43175;51.002;18.316;2022-11-20T04:43:21;76.60;;;30.90;;
57341;SDS011;43175;51.002;18.316;2022-11-20T04:45:50;75.70;;;32.70;;
57341;SDS011;43175;51.002;18.316;2022-11-20T04:48:16;71.50;;;32.40;;
57341;SDS011;43175;51.002;18.316;2022-11-20T04:50:42;69.50;;;29.90;;
57341;SDS011;43175;51.002;18.316;2022-11-20T04:53:07;71.50;;;28.80;;
57341;SDS011;43175;51.002;18.316;2022-11-20T04:55:33;71.00;;;29.90;;
57341;SDS011;43175;51.002;18.316;2022-11-20T04:57:58;70.50;;;29.50;;
57341;SDS011;43175;51.002;18.316;2022-11-20T05:00:24;72.30;;;28.90;;
57341;SDS011;43175;51.002;18.316;2022-11-20T05:02:49;71.90;;;30.70;;
57341;SDS011;43175;51.002;18.316;2022-11-20T05:05:15;74.20;;;30.50;;
57341;SDS011;43175;51.002;18.316;2022-11-20T05:07:40;72.80;;;32.40;;
57341;SDS011;43175;51.002;18.316;2022-11-20T05:10:06;75.10;;;31.30;;
57341;SDS011;43175;51.002;18.316;2022-11-20T05:12:32;80.80;;;32.50;;
57341;SDS011;43175;51.002;18.316;2022-11-20T05:14:57;81.20;;;33.20;;
57341;SDS011;43175;51.002;18.316;2022-11-20T05:17:23;79.80;;;32.80;;
57341;SDS011;43175;51.002;18.316;2022-11-20T05:19:48;78.60;;;33.00;;
57341;SDS011;43175;51.002;18.316;2022-11-20T05:22:14;73.60;;;30.20;;
57341;SDS011;43175;51.002;18.316;2022-11-20T05:24:39;84.50;;;33.00;;
57341;SDS011;43175;51.002;18.316;2022-11-20T05:27:05;87.40;;;34.70;;
57341;SDS011;43175;51.002;18.316;2022-11-20T05:29:30;81.50;;;33.00;;
57341;SDS011;43175;51.002;18.316;2022-11-20T05:31:55;81.00;;;32.00;;
57341;SDS011;43175;51.002;18.316;2022-11-20T05:34:21;84.90;;;34.50;;
57341;SDS011;43175;51.002;18.316;2022-11-20T05:36:46;86.40;;;35.10;;
57341;SDS011;43175;51.002;18.316;2022-11-20T05:39:12;77.80;;;33.20;;
57341;SDS011;43175;51.002;18.316;2022-11-20T05:41:37;87.70;;;34.80;;
57341;SDS011;43175;51.002;18.316;2022-11-20T05:44:03;90.40;;;34.50;;
57341;SDS011;43175;51.002;18.316;2022-11-20T05:46:29;80.00;;;33.70;;
57341;SDS011;43175;51.002;18.316;2022-11-20T05:48:54;84.80;;;35.80;;
57341;SDS011;43175;51.002;18.316;2022-11-20T05:51:20;92.30;;;36.40;;
57341;SDS011;43175;51.002;18.316;2022-11-20T05:53:46;92.50;;;36.10;;
57341;SDS011;43175;51.002;18.316;2022-11-20T05:56:13;88.70;;;35.30;;
57341;SDS011;43175;51.002;18.316;2022-11-20T05:58:41;88.70;;;35.30;;
57341;SDS011;43175;51.002;18.316;2022-11-20T06:03:45;90.40;;;38.30;;
57341;SDS011;43175;51.002;18.316;2022-11-20T06:06:13;97.50;;;38.10;;
57341;SDS011;43175;51.002;18.316;2022-11-20T06:08:39;102.30;;;39.30;;
57341;SDS011;43175;51.002;18.316;2022-11-20T06:11:06;99.60;;;40.20;;
57341;SDS011;43175;51.002;18.316;2022-11-20T06:13:33;99.70;;;38.90;;
57341;SDS011;43175;51.002;18.316;2022-11-20T06:15:58;97.40;;;39.20;;
57341;SDS011;43175;51.002;18.316;2022-11-20T06:18:26;102.70;;;39.80;;
57341;SDS011;43175;51.002;18.316;2022-11-20T06:21:06;99.50;;;39.30;;
57341;SDS011;43175;51.002;18.316;2022-11-20T06:23:33;96.70;;;41.80;;
57341;SDS011;43175;51.002;18.316;2022-11-20T06:26:07;96.60;;;39.80;;
57341;SDS011;43175;51.002;18.316;2022-11-20T06:28:34;101.50;;;40.60;;
57341;SDS011;43175;51.002;18.316;2022-11-20T06:31:00;105.30;;;42.50;;
57341;SDS011;43175;51.002;18.316;2022-11-20T06:33:27;106.30;;;40.90;;
57341;SDS011;43175;51.002;18.316;2022-11-20T06:35:55;105.90;;;42.60;;
57341;SDS011;43175;51.002;18.316;2022-11-20T06:38:23;109.20;;;42.10;;
57341;SDS011;43175;51.002;18.316;2022-11-20T06:40:49;106.10;;;41.80;;
57341;SDS011;43175;51.002;18.316;2022-11-20T06:43:14;108.60;;;41.90;;
57341;SDS011;43175;51.002;18.316;2022-11-20T06:45:40;105.80;;;41.80;;
57341;SDS011;43175;51.002;18.316;2022-11-20T06:48:05;108.60;;;43.80;;
57341;SDS011;43175;51.002;18.316;2022-11-20T06:50:31;100.90;;;41.60;;
57341;SDS011;43175;51.002;18.316;2022-11-20T06:52:56;103.10;;;41.90;;
57341;SDS011;43175;51.002;18.316;2022-11-20T06:55:25;108.00;;;42.10;;
57341;SDS011;43175;51.002;18.316;2022-11-20T06:57:51;119.50;;;48.10;;
57341;SDS011;43175;51.002;18.316;2022-11-20T07:00:16;123.80;;;47.50;;
57341;SDS011;43175;51.002;18.316;2022-11-20T07:02:42;122.80;;;46.40;;
57341;SDS011;43175;51.002;18.316;2022-11-20T07:05:07;115.30;;;46.40;;
57341;SDS011;43175;51.002;18.316;2022-11-20T07:07:33;107.60;;;44.20;;
57341;SDS011;43175;51.002;18.316;2022-11-20T07:09:58;103.00;;;39.90;;
57341;SDS011;43175;51.002;18.316;2022-11-20T07:12:24;94.70;;;39.10;;
57341;SDS011;43175;51.002;18.316;2022-11-20T07:14:49;109.40;;;41.50;;
57341;SDS011;43175;51.002;18.316;2022-11-20T07:17:15;102.20;;;41.70;;
57341;SDS011;43175;51.002;18.316;2022-11-20T07:19:40;110.60;;;43.00;;
57341;SDS011;43175;51.002;18.316;2022-11-20T07:22:05;113.80;;;43.70;;
57341;SDS011;43175;51.002;18.316;2022-11-20T07:24:31;111.30;;;44.90;;
57341;SDS011;43175;51.002;18.316;2022-11-20T07:26:56;115.30;;;45.80;;
57341;SDS011;43175;51.002;18.316;2022-11-20T07:29:22;113.40;;;45.10;;
57341;SDS011;43175;51.002;18.316;2022-11-20T07:31:47;109.50;;;42.30;;
57341;SDS011;43175;51.002;18.316;2022-11-20T07:34:13;97.70;;;41.20;;
57341;SDS011;43175;51.002;18.316;2022-11-20T07:36:39;97.70;;;40.90;;
57341;SDS011;43175;51.002;18.316;2022-11-20T07:39:04;101.50;;;40.50;;
57341;SDS011;43175;51.002;18.316;2022-11-20T07:41:30;100.00;;;40.50;;
57341;SDS011;43175;51.002;18.316;2022-11-20T07:43:56;102.90;;;40.10;;
57341;SDS011;43175;51.002;18.316;2022-11-20T07:46:21;93.70;;;37.60;;
57341;SDS011;43175;51.002;18.316;2022-11-20T07:48:47;99.50;;;39.70;;
57341;SDS011;43175;51.002;18.316;2022-11-20T07:51:12;105.00;;;41.40;;
57341;SDS011;43175;51.002;18.316;2022-11-20T07:53:38;107.50;;;42.70;;
57341;SDS011;43175;51.002;18.316;2022-11-20T07:56:04;100.40;;;41.10;;
57341;SDS011;43175;51.002;18.316;2022-11-20T07:58:30;94.90;;;40.40;;
57341;SDS011;43175;51.002;18.316;2022-11-20T08:00:58;100.80;;;41.20;;
57341;SDS011;43175;51.002;18.316;2022-11-20T08:03:27;99.90;;;40.80;;
57341;SDS011;43175;51.002;18.316;2022-11-20T08:05:52;100.70;;;40.80;;
57341;SDS011;43175;51.002;18.316;2022-11-20T08:08:18;94.60;;;41.20;;
57341;SDS011;43175;51.002;18.316;2022-11-20T08:10:44;95.20;;;39.90;;
57341;SDS011;43175;51.002;18.316;2022-11-20T08:13:10;91.90;;;39.00;;
57341;SDS011;43175;51.002;18.316;2022-11-20T08:15:54;91.30;;;39.60;;
57341;SDS011;43175;51.002;18.316;2022-11-20T08:18:19;96.30;;;39.80;;
57341;SDS011;43175;51.002;18.316;2022-11-20T08:20:45;89.50;;;38.90;;
57341;SDS011;43175;51.002;18.316;2022-11-20T08:23:10;93.60;;;40.70;;
57341;SDS011;43175;51.002;18.316;2022-11-20T08:25:37;95.60;;;40.10;;
57341;SDS011;43175;51.002;18.316;2022-11-20T08:28:04;94.40;;;39.80;;
57341;SDS011;43175;51.002;18.316;2022-11-20T08:30:31;91.80;;;39.20;;
57341;SDS011;43175;51.002;18.316;2022-11-20T08:33:01;95.30;;;40.10;;
57341;SDS011;43175;51.002;18.316;2022-11-20T08:35:37;87.10;;;38.40;;
57341;SDS011;43175;51.002;18.316;2022-11-20T08:38:03;86.20;;;38.40;;
57341;SDS011;43175;51.002;18.316;2022-11-20T08:40:30;88.10;;;36.80;;
57341;SDS011;43175;51.002;18.316;2022-11-20T08:42:56;79.20;;;35.10;;
57341;SDS011;43175;51.002;18.316;2022-11-20T08:45:22;100.10;;;42.00;;
57341;SDS011;43175;51.002;18.316;2022-11-20T08:47:48;99.00;;;40.30;;
57341;SDS011;43175;51.002;18.316;2022-11-20T08:50:14;88.70;;;38.10;;
57341;SDS011;43175;51.002;18.316;2022-11-20T08:52:40;82.70;;;35.90;;
57341;SDS011;43175;51.002;18.316;2022-11-20T08:55:06;81.30;;;33.50;;
57341;SDS011;43175;51.002;18.316;2022-11-20T08:57:33;87.10;;;35.90;;
57341;SDS011;43175;51.002;18.316;2022-11-20T08:59:59;85.40;;;37.10;;
57341;SDS011;43175;51.002;18.316;2022-11-20T09:02:25;85.40;;;39.70;;
57341;SDS011;43175;51.002;18.316;2022-11-20T09:04:50;94.00;;;38.30;;
57341;SDS011;43175;51.002;18.316;2022-11-20T09:07:15;83.00;;;35.40;;
57341;SDS011;43175;51.002;18.316;2022-11-20T09:09:41;83.40;;;37.30;;
57341;SDS011;43175;51.002;18.316;2022-11-20T09:12:06;82.50;;;37.70;;
57341;SDS011;43175;51.002;18.316;2022-11-20T09:14:32;90.80;;;40.90;;
57341;SDS011;43175;51.002;18.316;2022-11-20T09:16:58;86.40;;;39.60;;
57341;SDS011;43175;51.002;18.316;2022-11-20T09:19:24;89.00;;;39.40;;
57341;SDS011;43175;51.002;18.316;2022-11-20T09:21:50;86.10;;;38.00;;
57341;SDS011;43175;51.002;18.316;2022-11-20T09:24:16;86.70;;;37.40;;
57341;SDS011;43175;51.002;18.316;2022-11-20T09:26:42;81.50;;;36.90;;
57341;SDS011;43175;51.002;18.316;2022-11-20T09:29:08;86.60;;;38.60;;
57341;SDS011;43175;51.002;18.316;2022-11-20T09:31:33;81.00;;;36.80;;
57341;SDS011;43175;51.002;18.316;2022-11-20T09:33:58;87.90;;;40.70;;
57341;SDS011;43175;51.002;18.316;2022-11-20T09:36:24;79.50;;;36.80;;
57341;SDS011;43175;51.002;18.316;2022-11-20T09:38:50;73.30;;;33.90;;
57341;SDS011;43175;51.002;18.316;2022-11-20T09:50:12;73.20;;;33.60;;
57341;SDS011;43175;51.002;18.316;2022-11-20T09:52:44;73.60;;;32.70;;
57341;SDS011;43175;51.002;18.316;2022-11-20T09:55:13;140.60;;;68.10;;
57341;SDS011;43175;51.002;18.316;2022-11-20T09:57:40;109.30;;;49.90;;
57341;SDS011;43175;51.002;18.316;2022-11-20T10:00:09;86.70;;;37.80;;
57341;SDS011;43175;51.002;18.316;2022-11-20T10:02:52;81.60;;;37.90;;
57341;SDS011;43175;51.002;18.316;2022-11-20T10:05:22;77.00;;;36.40;;
57341;SDS011;43175;51.002;18.316;2022-11-20T10:07:53;78.60;;;35.00;;
57341;SDS011;43175;51.002;18.316;2022-11-20T10:10:31;79.60;;;37.00;;
57341;SDS011;43175;51.002;18.316;2022-11-20T10:23:44;92.50;;;42.30;;
57341;SDS011;43175;51.002;18.316;2022-11-20T10:26:35;79.10;;;36.60;;
57341;SDS011;43175;51.002;18.316;2022-11-20T10:29:16;68.80;;;32.50;;
57341;SDS011;43175;51.002;18.316;2022-11-20T10:31:51;66.30;;;31.50;;
57341;SDS011;43175;51.002;18.316;2022-11-20T10:34:25;67.50;;;31.40;;
57341;SDS011;43175;51.002;18.316;2022-11-20T10:37:00;84.70;;;39.50;;
57341;SDS011;43175;51.002;18.316;2022-11-20T10:39:39;89.00;;;41.40;;
57341;SDS011;43175;51.002;18.316;2022-11-20T10:42:26;70.20;;;34.20;;
57341;SDS011;43175;51.002;18.316;2022-11-20T10:45:12;67.10;;;32.50;;
57341;SDS011;43175;51.002;18.316;2022-11-20T10:47:43;73.80;;;35.10;;
57341;SDS011;43175;51.002;18.316;2022-11-20T10:50:09;73.10;;;35.40;;
57341;SDS011;43175;51.002;18.316;2022-11-20T10:56:07;68.50;;;33.40;;
57341;SDS011;43175;51.002;18.316;2022-11-20T10:58:59;68.60;;;32.10;;
57341;SDS011;43175;51.002;18.316;2022-11-20T11:01:29;59.70;;;30.50;;
57341;SDS011;43175;51.002;18.316;2022-11-20T11:03:55;56.90;;;28.20;;
57341;SDS011;43175;51.002;18.316;2022-11-20T11:08:55;48.00;;;23.10;;
57341;SDS011;43175;51.002;18.316;2022-11-20T11:11:22;47.30;;;22.60;;
57341;SDS011;43175;51.002;18.316;2022-11-20T11:13:50;71.70;;;31.90;;
57341;SDS011;43175;51.002;18.316;2022-11-20T11:16:23;65.00;;;30.10;;
57341;SDS011;43175;51.002;18.316;2022-11-20T11:18:50;52.90;;;25.60;;
57341;SDS011;43175;51.002;18.316;2022-11-20T11:21:25;52.00;;;25.30;;
57341;SDS011;43175;51.002;18.316;2022-11-20T11:24:02;48.40;;;24.70;;
57341;SDS011;43175;51.002;18.316;2022-11-20T11:26:29;53.10;;;25.60;;
57341;SDS011;43175;51.002;18.316;2022-11-20T11:29:04;51.50;;;25.00;;
57341;SDS011;43175;51.002;18.316;2022-11-20T11:31:31;51.40;;;25.90;;
57341;SDS011;43175;51.002;18.316;2022-11-20T11:34:05;53.40;;;25.40;;
57341;SDS011;43175;51.002;18.316;2022-11-20T11:38:56;50.80;;;24.20;;
57341;SDS011;43175;51.002;18.316;2022-11-20T11:41:25;51.00;;;25.30;;
57341;SDS011;43175;51.002;18.316;2022-11-20T11:43:58;48.40;;;23.60;;
57341;SDS011;43175;51.002;18.316;2022-11-20T11:46:52;44.80;;;23.20;;
57341;SDS011;43175;51.002;18.316;2022-11-20T11:49:19;46.70;;;23.60;;
57341;SDS011;43175;51.002;18.316;2022-11-20T11:54:27;51.40;;;25.80;;
57341;SDS011;43175;51.002;18.316;2022-11-20T11:56:59;53.50;;;27.40;;
57341;SDS011;43175;51.002;18.316;2022-11-20T12:02:31;66.70;;;31.10;;
57341;SDS011;43175;51.002;18.316;2022-11-20T12:05:32;62.40;;;29.00;;
57341;SDS011;43175;51.002;18.316;2022-11-20T12:07:59;63.20;;;31.30;;
57341;SDS011;43175;51.002;18.316;2022-11-20T12:10:43;54.90;;;27.10;;
57341;SDS011;43175;51.002;18.316;2022-11-20T12:16:04;44.30;;;22.90;;
57341;SDS011;43175;51.002;18.316;2022-11-20T12:18:29;50.60;;;25.80;;
57341;SDS011;43175;51.002;18.316;2022-11-20T12:21:04;51.60;;;25.30;;
57341;SDS011;43175;51.002;18.316;2022-11-20T12:23:53;51.20;;;25.70;;
57341;SDS011;43175;51.002;18.316;2022-11-20T12:37:41;44.20;;;22.60;;
57341;SDS011;43175;51.002;18.316;2022-11-20T12:43:21;50.60;;;25.30;;
57341;SDS011;43175;51.002;18.316;2022-11-20T12:46:28;52.90;;;26.50;;
57341;SDS011;43175;51.002;18.316;2022-11-20T12:51:34;55.40;;;26.30;;
57341;SDS011;43175;51.002;18.316;2022-11-20T13:00:01;55.50;;;28.20;;
57341;SDS011;43175;51.002;18.316;2022-11-20T13:05:21;57.90;;;26.10;;
57341;SDS011;43175;51.002;18.316;2022-11-20T13:07:50;68.60;;;33.30;;
57341;SDS011;43175;51.002;18.316;2022-11-20T13:10:26;63.20;;;32.60;;
57341;SDS011;43175;51.002;18.316;2022-11-20T13:13:03;63.30;;;31.40;;
57341;SDS011;43175;51.002;18.316;2022-11-20T13:15:43;67.20;;;33.80;;
57341;SDS011;43175;51.002;18.316;2022-11-20T13:18:12;66.40;;;33.90;;
57341;SDS011;43175;51.002;18.316;2022-11-20T13:20:42;67.30;;;32.40;;
57341;SDS011;43175;51.002;18.316;2022-11-20T13:23:09;69.00;;;33.00;;
57341;SDS011;43175;51.002;18.316;2022-11-20T13:25:35;68.00;;;33.10;;
57341;SDS011;43175;51.002;18.316;2022-11-20T13:28:05;64.70;;;33.70;;
57341;SDS011;43175;51.002;18.316;2022-11-20T13:30:56;70.40;;;33.90;;
57341;SDS011;43175;51.002;18.316;2022-11-20T13:33:25;67.90;;;33.80;;
57341;SDS011;43175;51.002;18.316;2022-11-20T13:35:57;73.20;;;36.30;;
57341;SDS011;43175;51.002;18.316;2022-11-20T13:38:26;65.60;;;32.80;;
57341;SDS011;43175;51.002;18.316;2022-11-20T13:43:42;66.60;;;33.30;;
57341;SDS011;43175;51.002;18.316;2022-11-20T13:46:08;64.80;;;32.10;;
57341;SDS011;43175;51.002;18.316;2022-11-20T14:01:44;65.70;;;30.30;;
57341;SDS011;43175;51.002;18.316;2022-11-20T14:04:13;63.00;;;31.00;;
57341;SDS011;43175;51.002;18.316;2022-11-20T14:09:10;77.40;;;36.10;;
57341;SDS011;43175;51.002;18.316;2022-11-20T14:11:45;92.50;;;39.40;;
57341;SDS011;43175;51.002;18.316;2022-11-20T14:14:18;101.00;;;44.20;;
57341;SDS011;43175;51.002;18.316;2022-11-20T14:16:46;101.70;;;46.10;;
57341;SDS011;43175;51.002;18.316;2022-11-20T14:21:52;79.50;;;36.60;;
57341;SDS011;43175;51.002;18.316;2022-11-20T14:24:20;80.20;;;38.10;;
57341;SDS011;43175;51.002;18.316;2022-11-20T14:26:47;92.30;;;42.60;;
57341;SDS011;43175;51.002;18.316;2022-11-20T14:29:17;93.50;;;40.40;;
57341;SDS011;43175;51.002;18.316;2022-11-20T14:31:44;80.80;;;38.30;;
57341;SDS011;43175;51.002;18.316;2022-11-20T14:34:20;88.90;;;39.20;;
57341;SDS011;43175;51.002;18.316;2022-11-20T14:36:48;101.70;;;45.20;;
57341;SDS011;43175;51.002;18.316;2022-11-20T14:39:21;87.00;;;41.10;;
57341;SDS011;43175;51.002;18.316;2022-11-20T14:41:50;82.20;;;37.30;;
57341;SDS011;43175;51.002;18.316;2022-11-20T14:44:17;78.90;;;36.70;;
57341;SDS011;43175;51.002;18.316;2022-11-20T14:46:42;73.30;;;34.80;;
57341;SDS011;43175;51.002;18.316;2022-11-20T14:49:08;77.20;;;35.70;;
57341;SDS011;43175;51.002;18.316;2022-11-20T14:51:39;85.30;;;37.20;;
57341;SDS011;43175;51.002;18.316;2022-11-20T14:54:09;78.20;;;36.90;;
57341;SDS011;43175;51.002;18.316;2022-11-20T14:56:42;75.50;;;35.00;;
57341;SDS011;43175;51.002;18.316;2022-11-20T14:59:08;72.80;;;35.00;;
57341;SDS011;43175;51.002;18.316;2022-11-20T15:01:34;77.10;;;35.90;;
57341;SDS011;43175;51.002;18.316;2022-11-20T15:04:09;75.30;;;35.70;;
57341;SDS011;43175;51.002;18.316;2022-11-20T15:06:35;74.90;;;34.10;;
57341;SDS011;43175;51.002;18.316;2022-11-20T15:09:02;74.40;;;34.50;;
57341;SDS011;43175;51.002;18.316;2022-11-20T15:11:30;70.80;;;32.70;;
57341;SDS011;43175;51.002;18.316;2022-11-20T15:13:58;67.00;;;31.50;;
57341;SDS011;43175;51.002;18.316;2022-11-20T15:16:28;62.50;;;29.50;;
57341;SDS011;43175;51.002;18.316;2022-11-20T15:18:53;64.20;;;29.70;;
57341;SDS011;43175;51.002;18.316;2022-11-20T15:21:20;70.80;;;31.30;;
57341;SDS011;43175;51.002;18.316;2022-11-20T15:23:49;66.40;;;29.90;;
57341;SDS011;43175;51.002;18.316;2022-11-20T15:26:17;71.10;;;31.50;;
57341;SDS011;43175;51.002;18.316;2022-11-20T15:28:47;69.40;;;31.60;;
57341;SDS011;43175;51.002;18.316;2022-11-20T15:31:19;75.50;;;32.80;;
57341;SDS011;43175;51.002;18.316;2022-11-20T15:33:46;92.00;;;37.30;;
57341;SDS011;43175;51.002;18.316;2022-11-20T15:36:11;103.60;;;42.70;;
57341;SDS011;43175;51.002;18.316;2022-11-20T15:38:37;104.80;;;43.20;;
57341;SDS011;43175;51.002;18.316;2022-11-20T15:41:03;87.40;;;36.80;;
57341;SDS011;43175;51.002;18.316;2022-11-20T15:43:29;82.30;;;34.90;;